EDLP/PAD METAR and TAF weather

Enter ICAO airport designator
Station Type Date Time Source
EDLP METAR 2019/12/05 15:20 UTC NOAA

EDLP 051520Z 18004KT CAVOK 02/00 Q1019


Station Type Date Time Source
EDLP Decoded METAR 2019/12/05 15:20 UTC NOAA

Paderborn / Lippstadt, Germany (EDLP) 51-37N 008-37E
Dec 05, 2019 - 10:20 AM EST / 2019.12.05 1520 UTC
Wind: from the S (180 degrees) at 5 MPH (4 KT):0
Visibility: greater than 7 mile(s):0
Temperature: 35 F (2 C)
Windchill: 30 F (-1 C):1
Dew Point: 32 F (0 C)
Relative Humidity: 86%
Pressure (altimeter): 30.09 in. Hg (1019 hPa)
ob: EDLP 051520Z 18004KT CAVOK 02/00 Q1019
cycle: 15

Station Type Date Time Source
EDLP TAF 2019/12/05 12:27 UTC NOAA

TAF EDLP 051100Z 0512/0612 20005KT CAVOK
BECMG 0516/0519 21010KT
BECMG 0600/0603 21015G25KT

Example: see airport list